sensor_id;sensor_type;location;lat;lon;timestamp;temperature;humidity
26743;DHT22;14341;51.256;22.478;2022-08-19T00:01:58;18.30;99.90
26743;DHT22;14341;51.256;22.478;2022-08-19T00:05:02;18.30;99.90
26743;DHT22;14341;51.256;22.478;2022-08-19T00:08:06;18.20;99.90
26743;DHT22;14341;51.256;22.478;2022-08-19T00:11:09;18.10;99.90
26743;DHT22;14341;51.256;22.478;2022-08-19T00:14:21;18.20;99.90
26743;DHT22;14341;51.256;22.478;2022-08-19T00:17:24;18.20;99.90
26743;DHT22;14341;51.256;22.478;2022-08-19T00:20:28;18.20;99.90
26743;DHT22;14341;51.256;22.478;2022-08-19T00:23:31;18.20;99.90
26743;DHT22;14341;51.256;22.478;2022-08-19T00:26:37;18.10;99.90
26743;DHT22;14341;51.256;22.478;2022-08-19T00:32:46;18.10;99.90
26743;DHT22;14341;51.256;22.478;2022-08-19T00:35:50;18.10;99.90
26743;DHT22;14341;51.256;22.478;2022-08-19T00:38:57;18.10;99.90
26743;DHT22;14341;51.256;22.478;2022-08-19T00:42:00;18.00;99.90
26743;DHT22;14341;51.256;22.478;2022-08-19T00:45:10;18.00;99.90
26743;DHT22;14341;51.256;22.478;2022-08-19T00:48:14;17.90;99.90
26743;DHT22;14341;51.256;22.478;2022-08-19T00:51:19;17.90;99.90
26743;DHT22;14341;51.256;22.478;2022-08-19T00:54:23;17.90;99.90
26743;DHT22;14341;51.256;22.478;2022-08-19T00:57:36;17.90;99.90
26743;DHT22;14341;51.256;22.478;2022-08-19T01:00:45;17.80;99.90
26743;DHT22;14341;51.256;22.478;2022-08-19T01:09:21;17.80;99.90
26743;DHT22;14341;51.256;22.478;2022-08-19T01:55:51;17.40;99.90
26743;DHT22;14341;51.256;22.478;2022-08-19T01:58:57;17.40;99.90
26743;DHT22;14341;51.256;22.478;2022-08-19T02:02:01;17.30;99.90
26743;DHT22;14341;51.256;22.478;2022-08-19T02:05:06;17.30;99.90
26743;DHT22;14341;51.256;22.478;2022-08-19T02:08:12;17.30;99.90
26743;DHT22;14341;51.256;22.478;2022-08-19T02:11:22;17.30;99.90
26743;DHT22;14341;51.256;22.478;2022-08-19T02:14:26;17.20;99.90
26743;DHT22;14341;51.256;22.478;2022-08-19T02:17:29;17.20;99.90
26743;DHT22;14341;51.256;22.478;2022-08-19T02:20:33;17.20;99.90
26743;DHT22;14341;51.256;22.478;2022-08-19T02:23:37;17.20;99.90
26743;DHT22;14341;51.256;22.478;2022-08-19T02:26:42;17.20;99.90
26743;DHT22;14341;51.256;22.478;2022-08-19T02:29:46;17.20;99.90
26743;DHT22;14341;51.256;22.478;2022-08-19T02:32:49;17.10;99.90
26743;DHT22;14341;51.256;22.478;2022-08-19T02:35:53;17.10;99.90
26743;DHT22;14341;51.256;22.478;2022-08-19T02:38:56;17.10;99.90
26743;DHT22;14341;51.256;22.478;2022-08-19T02:42:01;17.10;99.90
26743;DHT22;14341;51.256;22.478;2022-08-19T02:45:05;17.10;99.90
26743;DHT22;14341;51.256;22.478;2022-08-19T02:48:09;17.00;99.90
26743;DHT22;14341;51.256;22.478;2022-08-19T02:51:24;17.00;99.90
26743;DHT22;14341;51.256;22.478;2022-08-19T02:54:27;17.00;99.90
26743;DHT22;14341;51.256;22.478;2022-08-19T02:57:32;17.00;99.90
26743;DHT22;14341;51.256;22.478;2022-08-19T03:00:36;17.00;99.90
26743;DHT22;14341;51.256;22.478;2022-08-19T03:03:44;17.00;99.90
26743;DHT22;14341;51.256;22.478;2022-08-19T03:06:48;17.00;99.90
26743;DHT22;14341;51.256;22.478;2022-08-19T03:09:51;17.00;99.90
26743;DHT22;14341;51.256;22.478;2022-08-19T03:12:56;17.00;99.90
26743;DHT22;14341;51.256;22.478;2022-08-19T03:16:05;17.00;99.90
26743;DHT22;14341;51.256;22.478;2022-08-19T03:19:09;17.00;99.90
26743;DHT22;14341;51.256;22.478;2022-08-19T03:22:12;16.90;99.90
26743;DHT22;14341;51.256;22.478;2022-08-19T03:25:16;16.80;99.90
26743;DHT22;14341;51.256;22.478;2022-08-19T03:28:21;16.90;99.90
26743;DHT22;14341;51.256;22.478;2022-08-19T03:31:25;16.90;99.90
26743;DHT22;14341;51.256;22.478;2022-08-19T03:34:46;16.90;99.90
26743;DHT22;14341;51.256;22.478;2022-08-19T03:37:49;16.90;99.90
26743;DHT22;14341;51.256;22.478;2022-08-19T03:40:54;17.00;99.90
26743;DHT22;14341;51.256;22.478;2022-08-19T03:43:59;17.00;99.90
26743;DHT22;14341;51.256;22.478;2022-08-19T03:47:03;16.90;99.90
26743;DHT22;14341;51.256;22.478;2022-08-19T03:50:07;17.00;99.90
26743;DHT22;14341;51.256;22.478;2022-08-19T03:53:11;17.10;99.90
26743;DHT22;14341;51.256;22.478;2022-08-19T03:56:14;17.10;99.90
26743;DHT22;14341;51.256;22.478;2022-08-19T03:59:22;17.20;99.90
26743;DHT22;14341;51.256;22.478;2022-08-19T04:02:27;17.30;99.90
26743;DHT22;14341;51.256;22.478;2022-08-19T04:05:30;17.30;99.90
26743;DHT22;14341;51.256;22.478;2022-08-19T04:08:34;17.40;99.90
26743;DHT22;14341;51.256;22.478;2022-08-19T04:11:39;17.40;99.90
26743;DHT22;14341;51.256;22.478;2022-08-19T04:17:50;17.60;99.90
26743;DHT22;14341;51.256;22.478;2022-08-19T04:20:54;17.60;99.90
26743;DHT22;14341;51.256;22.478;2022-08-19T04:23:57;17.70;99.90
26743;DHT22;14341;51.256;22.478;2022-08-19T04:27:01;17.70;99.90
26743;DHT22;14341;51.256;22.478;2022-08-19T04:30:07;17.80;99.90
26743;DHT22;14341;51.256;22.478;2022-08-19T04:33:12;17.90;99.90
26743;DHT22;14341;51.256;22.478;2022-08-19T04:36:16;18.00;99.90
26743;DHT22;14341;51.256;22.478;2022-08-19T04:39:24;18.10;99.90
26743;DHT22;14341;51.256;22.478;2022-08-19T04:42:49;18.20;99.90
26743;DHT22;14341;51.256;22.478;2022-08-19T04:45:52;18.30;99.90
26743;DHT22;14341;51.256;22.478;2022-08-19T04:49:03;18.50;99.90
26743;DHT22;14341;51.256;22.478;2022-08-19T04:52:14;18.60;99.90
26743;DHT22;14341;51.256;22.478;2022-08-19T04:55:18;18.80;99.90
26743;DHT22;14341;51.256;22.478;2022-08-19T04:58:21;18.90;99.90
26743;DHT22;14341;51.256;22.478;2022-08-19T05:01:27;19.00;99.90
26743;DHT22;14341;51.256;22.478;2022-08-19T05:04:31;19.10;99.90
26743;DHT22;14341;51.256;22.478;2022-08-19T05:07:35;19.20;99.90
26743;DHT22;14341;51.256;22.478;2022-08-19T05:10:39;19.40;99.90
26743;DHT22;14341;51.256;22.478;2022-08-19T05:13:44;19.60;99.90
26743;DHT22;14341;51.256;22.478;2022-08-19T05:16:49;19.70;99.90
26743;DHT22;14341;51.256;22.478;2022-08-19T05:20:12;19.80;99.90
26743;DHT22;14341;51.256;22.478;2022-08-19T05:23:33;20.00;99.90
26743;DHT22;14341;51.256;22.478;2022-08-19T05:26:36;20.20;99.90
26743;DHT22;14341;51.256;22.478;2022-08-19T05:29:40;20.40;99.90
26743;DHT22;14341;51.256;22.478;2022-08-19T05:32:45;20.60;99.90
26743;DHT22;14341;51.256;22.478;2022-08-19T05:35:49;20.80;99.90
26743;DHT22;14341;51.256;22.478;2022-08-19T05:38:52;21.00;99.90
26743;DHT22;14341;51.256;22.478;2022-08-19T05:41:59;21.10;99.90
26743;DHT22;14341;51.256;22.478;2022-08-19T05:45:03;21.30;99.90
26743;DHT22;14341;51.256;22.478;2022-08-19T05:48:08;21.40;99.90
26743;DHT22;14341;51.256;22.478;2022-08-19T05:51:12;21.50;99.90
26743;DHT22;14341;51.256;22.478;2022-08-19T05:54:18;21.70;99.90
26743;DHT22;14341;51.256;22.478;2022-08-19T05:57:23;21.80;99.90
26743;DHT22;14341;51.256;22.478;2022-08-19T06:00:27;22.00;99.90
26743;DHT22;14341;51.256;22.478;2022-08-19T06:03:35;22.10;99.90
26743;DHT22;14341;51.256;22.478;2022-08-19T06:06:40;22.20;99.90
26743;DHT22;14341;51.256;22.478;2022-08-19T06:09:43;22.30;99.90
26743;DHT22;14341;51.256;22.478;2022-08-19T06:13:01;22.40;99.90
26743;DHT22;14341;51.256;22.478;2022-08-19T06:16:05;22.60;99.90
26743;DHT22;14341;51.256;22.478;2022-08-19T06:19:12;22.70;99.90
26743;DHT22;14341;51.256;22.478;2022-08-19T06:22:16;22.80;99.90
26743;DHT22;14341;51.256;22.478;2022-08-19T06:25:19;22.80;99.90
26743;DHT22;14341;51.256;22.478;2022-08-19T06:28:23;23.00;99.90
26743;DHT22;14341;51.256;22.478;2022-08-19T06:31:27;23.00;99.90
26743;DHT22;14341;51.256;22.478;2022-08-19T06:34:34;23.20;99.90
26743;DHT22;14341;51.256;22.478;2022-08-19T06:37:38;23.30;99.90
26743;DHT22;14341;51.256;22.478;2022-08-19T06:40:44;23.50;99.90
26743;DHT22;14341;51.256;22.478;2022-08-19T06:43:47;23.60;99.90
26743;DHT22;14341;51.256;22.478;2022-08-19T06:46:55;23.60;99.90
26743;DHT22;14341;51.256;22.478;2022-08-19T06:50:00;23.90;99.90
26743;DHT22;14341;51.256;22.478;2022-08-19T06:53:06;23.90;99.90
26743;DHT22;14341;51.256;22.478;2022-08-19T06:56:10;24.10;99.90
26743;DHT22;14341;51.256;22.478;2022-08-19T06:59:16;24.20;99.90
26743;DHT22;14341;51.256;22.478;2022-08-19T07:02:20;24.30;99.90
26743;DHT22;14341;51.256;22.478;2022-08-19T07:05:29;24.40;99.90
26743;DHT22;14341;51.256;22.478;2022-08-19T07:08:34;24.60;99.90
26743;DHT22;14341;51.256;22.478;2022-08-19T07:11:44;24.70;99.90
26743;DHT22;14341;51.256;22.478;2022-08-19T07:14:48;24.70;99.90
26743;DHT22;14341;51.256;22.478;2022-08-19T07:17:52;24.80;99.90
26743;DHT22;14341;51.256;22.478;2022-08-19T07:21:03;25.00;99.90
26743;DHT22;14341;51.256;22.478;2022-08-19T07:24:10;25.10;99.90
26743;DHT22;14341;51.256;22.478;2022-08-19T07:27:14;25.20;99.90
26743;DHT22;14341;51.256;22.478;2022-08-19T07:30:25;25.30;99.90
26743;DHT22;14341;51.256;22.478;2022-08-19T07:33:28;25.60;99.90
26743;DHT22;14341;51.256;22.478;2022-08-19T07:36:37;25.50;99.90
26743;DHT22;14341;51.256;22.478;2022-08-19T07:39:42;25.70;99.90
26743;DHT22;14341;51.256;22.478;2022-08-19T07:42:46;25.90;99.90
26743;DHT22;14341;51.256;22.478;2022-08-19T07:45:49;26.00;99.90
26743;DHT22;14341;51.256;22.478;2022-08-19T07:48:53;26.10;99.90
26743;DHT22;14341;51.256;22.478;2022-08-19T07:52:01;26.10;99.90
26743;DHT22;14341;51.256;22.478;2022-08-19T07:55:06;26.30;99.90
26743;DHT22;14341;51.256;22.478;2022-08-19T07:58:45;26.30;99.90
26743;DHT22;14341;51.256;22.478;2022-08-19T08:01:51;26.50;99.90
26743;DHT22;14341;51.256;22.478;2022-08-19T08:04:56;26.70;99.90
26743;DHT22;14341;51.256;22.478;2022-08-19T08:08:23;26.70;99.90
26743;DHT22;14341;51.256;22.478;2022-08-19T08:12:05;25.40;99.90
26743;DHT22;14341;51.256;22.478;2022-08-19T08:15:35;26.70;99.90
26743;DHT22;14341;51.256;22.478;2022-08-19T08:22:03;24.90;99.90
26743;DHT22;14341;51.256;22.478;2022-08-19T08:25:16;27.00;99.90
26743;DHT22;14341;51.256;22.478;2022-08-19T08:28:22;27.10;99.90
26743;DHT22;14341;51.256;22.478;2022-08-19T08:31:35;27.20;99.90
26743;DHT22;14341;51.256;22.478;2022-08-19T08:34:39;27.40;97.30
26743;DHT22;14341;51.256;22.478;2022-08-19T08:37:46;26.50;99.90
26743;DHT22;14341;51.256;22.478;2022-08-19T08:41:01;27.60;99.90
26743;DHT22;14341;51.256;22.478;2022-08-19T08:44:22;27.80;99.90
26743;DHT22;14341;51.256;22.478;2022-08-19T08:47:43;27.80;97.30
26743;DHT22;14341;51.256;22.478;2022-08-19T08:50:58;27.90;92.80
26743;DHT22;14341;51.256;22.478;2022-08-19T08:54:24;27.80;73.80
26743;DHT22;14341;51.256;22.478;2022-08-19T08:57:36;28.00;87.80
26743;DHT22;14341;51.256;22.478;2022-08-19T09:00:48;28.10;96.50
26743;DHT22;14341;51.256;22.478;2022-08-19T09:03:52;27.80;81.60
26743;DHT22;14341;51.256;22.478;2022-08-19T09:07:09;28.40;54.10
26743;DHT22;14341;51.256;22.478;2022-08-19T09:10:39;28.40;39.50
26743;DHT22;14341;51.256;22.478;2022-08-19T09:14:08;28.50;2.60
26743;DHT22;14341;51.256;22.478;2022-08-19T09:17:39;28.70;1.00
26743;DHT22;14341;51.256;22.478;2022-08-19T09:20:53;28.90;1.00
26743;DHT22;14341;51.256;22.478;2022-08-19T09:24:03;28.80;1.00
26743;DHT22;14341;51.256;22.478;2022-08-19T09:27:23;28.80;1.00
26743;DHT22;14341;51.256;22.478;2022-08-19T09:30:46;29.10;1.00
26743;DHT22;14341;51.256;22.478;2022-08-19T09:33:59;30.10;1.00
26743;DHT22;14341;51.256;22.478;2022-08-19T09:37:07;29.00;1.00
26743;DHT22;14341;51.256;22.478;2022-08-19T09:40:14;27.10;1.00
26743;DHT22;14341;51.256;22.478;2022-08-19T09:43:19;29.10;1.00
26743;DHT22;14341;51.256;22.478;2022-08-19T09:46:38;29.30;1.00
26743;DHT22;14341;51.256;22.478;2022-08-19T09:49:44;29.30;1.00
26743;DHT22;14341;51.256;22.478;2022-08-19T09:52:48;29.40;1.00
26743;DHT22;14341;51.256;22.478;2022-08-19T09:59:21;29.50;1.00
26743;DHT22;14341;51.256;22.478;2022-08-19T10:02:32;29.50;1.00
26743;DHT22;14341;51.256;22.478;2022-08-19T10:05:42;29.70;1.00
26743;DHT22;14341;51.256;22.478;2022-08-19T10:09:00;29.80;1.00
26743;DHT22;14341;51.256;22.478;2022-08-19T10:12:14;29.70;1.00
26743;DHT22;14341;51.256;22.478;2022-08-19T10:15:27;29.90;1.00
26743;DHT22;14341;51.256;22.478;2022-08-19T10:18:54;30.10;1.00
26743;DHT22;14341;51.256;22.478;2022-08-19T10:22:03;30.20;1.00
26743;DHT22;14341;51.256;22.478;2022-08-19T10:25:14;30.20;1.00
26743;DHT22;14341;51.256;22.478;2022-08-19T10:28:19;28.90;1.00
26743;DHT22;14341;51.256;22.478;2022-08-19T10:31:28;30.30;1.00
26743;DHT22;14341;51.256;22.478;2022-08-19T10:35:01;30.60;1.00
26743;DHT22;14341;51.256;22.478;2022-08-19T10:38:15;30.80;1.00
26743;DHT22;14341;51.256;22.478;2022-08-19T10:41:36;28.50;1.00
26743;DHT22;14341;51.256;22.478;2022-08-19T10:44:52;30.60;1.00
26743;DHT22;14341;51.256;22.478;2022-08-19T10:47:59;30.80;1.00
26743;DHT22;14341;51.256;22.478;2022-08-19T10:51:08;31.10;1.00
26743;DHT22;14341;51.256;22.478;2022-08-19T10:54:33;31.40;1.00
26743;DHT22;14341;51.256;22.478;2022-08-19T10:58:13;31.10;1.00
26743;DHT22;14341;51.256;22.478;2022-08-19T11:01:19;31.60;1.00
26743;DHT22;14341;51.256;22.478;2022-08-19T11:04:23;31.60;1.00
26743;DHT22;14341;51.256;22.478;2022-08-19T11:07:39;31.50;1.00
26743;DHT22;14341;51.256;22.478;2022-08-19T11:10:43;30.20;1.00
26743;DHT22;14341;51.256;22.478;2022-08-19T11:13:52;32.10;1.00
26743;DHT22;14341;51.256;22.478;2022-08-19T11:17:00;29.90;1.00
26743;DHT22;14341;51.256;22.478;2022-08-19T11:20:12;32.50;1.00
26743;DHT22;14341;51.256;22.478;2022-08-19T11:23:40;32.30;1.00
26743;DHT22;14341;51.256;22.478;2022-08-19T11:26:51;32.40;1.00
26743;DHT22;14341;51.256;22.478;2022-08-19T11:29:55;33.40;1.00
26743;DHT22;14341;51.256;22.478;2022-08-19T11:33:00;33.10;1.00
26743;DHT22;14341;51.256;22.478;2022-08-19T11:36:07;36.40;1.00
26743;DHT22;14341;51.256;22.478;2022-08-19T11:39:20;33.80;1.00
26743;DHT22;14341;51.256;22.478;2022-08-19T11:42:24;33.60;1.00
26743;DHT22;14341;51.256;22.478;2022-08-19T11:45:48;33.70;1.00
26743;DHT22;14341;51.256;22.478;2022-08-19T11:48:55;33.70;1.00
26743;DHT22;14341;51.256;22.478;2022-08-19T11:52:00;33.90;1.00
26743;DHT22;14341;51.256;22.478;2022-08-19T11:55:08;33.40;1.00
26743;DHT22;14341;51.256;22.478;2022-08-19T11:58:12;33.80;1.00
26743;DHT22;14341;51.256;22.478;2022-08-19T12:01:21;34.30;1.00
26743;DHT22;14341;51.256;22.478;2022-08-19T12:04:26;34.70;1.00
26743;DHT22;14341;51.256;22.478;2022-08-19T12:07:33;35.10;1.00
26743;DHT22;14341;51.256;22.478;2022-08-19T12:10:38;35.10;1.00
26743;DHT22;14341;51.256;22.478;2022-08-19T12:13:44;34.90;1.00
26743;DHT22;14341;51.256;22.478;2022-08-19T12:16:53;34.30;1.00
26743;DHT22;14341;51.256;22.478;2022-08-19T12:20:07;34.80;1.00
26743;DHT22;14341;51.256;22.478;2022-08-19T12:23:17;31.20;1.00
26743;DHT22;14341;51.256;22.478;2022-08-19T12:26:27;35.50;1.00
26743;DHT22;14341;51.256;22.478;2022-08-19T12:32:36;35.20;1.00
26743;DHT22;14341;51.256;22.478;2022-08-19T12:35:44;34.80;1.00
26743;DHT22;14341;51.256;22.478;2022-08-19T12:38:50;34.70;1.00
26743;DHT22;14341;51.256;22.478;2022-08-19T12:41:55;35.30;1.00
26743;DHT22;14341;51.256;22.478;2022-08-19T12:45:05;34.80;1.00
26743;DHT22;14341;51.256;22.478;2022-08-19T12:48:12;34.30;1.00
26743;DHT22;14341;51.256;22.478;2022-08-19T12:51:38;35.30;1.00
26743;DHT22;14341;51.256;22.478;2022-08-19T12:54:42;35.20;1.00
26743;DHT22;14341;51.256;22.478;2022-08-19T12:57:51;35.30;1.00
26743;DHT22;14341;51.256;22.478;2022-08-19T13:01:06;35.80;1.00
26743;DHT22;14341;51.256;22.478;2022-08-19T13:04:12;34.40;1.00
26743;DHT22;14341;51.256;22.478;2022-08-19T13:07:16;34.80;1.00
26743;DHT22;14341;51.256;22.478;2022-08-19T13:10:20;34.90;1.00
26743;DHT22;14341;51.256;22.478;2022-08-19T13:13:56;35.40;1.00
26743;DHT22;14341;51.256;22.478;2022-08-19T13:17:07;35.60;1.00
26743;DHT22;14341;51.256;22.478;2022-08-19T13:20:11;35.20;1.00
26743;DHT22;14341;51.256;22.478;2022-08-19T13:23:16;34.90;1.00
26743;DHT22;14341;51.256;22.478;2022-08-19T13:26:20;34.20;1.00
26743;DHT22;14341;51.256;22.478;2022-08-19T13:32:47;33.80;1.00
26743;DHT22;14341;51.256;22.478;2022-08-19T13:36:08;34.00;1.00
26743;DHT22;14341;51.256;22.478;2022-08-19T13:39:11;33.60;1.00
26743;DHT22;14341;51.256;22.478;2022-08-19T13:42:15;34.30;1.00
26743;DHT22;14341;51.256;22.478;2022-08-19T13:45:23;34.40;1.00
26743;DHT22;14341;51.256;22.478;2022-08-19T13:48:27;34.30;1.00
26743;DHT22;14341;51.256;22.478;2022-08-19T13:54:34;33.60;1.00
26743;DHT22;14341;51.256;22.478;2022-08-19T13:57:38;34.20;1.00
26743;DHT22;14341;51.256;22.478;2022-08-19T14:00:45;33.90;1.00
26743;DHT22;14341;51.256;22.478;2022-08-19T14:03:50;34.00;1.00
26743;DHT22;14341;51.256;22.478;2022-08-19T14:06:54;32.00;1.00
26743;DHT22;14341;51.256;22.478;2022-08-19T14:09:58;34.10;1.00
26743;DHT22;14341;51.256;22.478;2022-08-19T14:13:03;32.90;1.00
26743;DHT22;14341;51.256;22.478;2022-08-19T14:16:10;33.40;1.00
26743;DHT22;14341;51.256;22.478;2022-08-19T14:19:14;33.40;1.00
26743;DHT22;14341;51.256;22.478;2022-08-19T14:25:25;32.80;1.00
26743;DHT22;14341;51.256;22.478;2022-08-19T14:28:44;33.00;1.00
26743;DHT22;14341;51.256;22.478;2022-08-19T14:31:49;33.00;1.00
26743;DHT22;14341;51.256;22.478;2022-08-19T14:38:00;33.90;1.00
26743;DHT22;14341;51.256;22.478;2022-08-19T14:41:13;33.50;1.00
26743;DHT22;14341;51.256;22.478;2022-08-19T14:56:40;33.10;1.00
26743;DHT22;14341;51.256;22.478;2022-08-19T14:59:43;33.20;1.00
26743;DHT22;14341;51.256;22.478;2022-08-19T15:05:55;33.10;1.00
26743;DHT22;14341;51.256;22.478;2022-08-19T15:12:24;33.70;1.00
26743;DHT22;14341;51.256;22.478;2022-08-19T15:24:57;34.10;1.00
26743;DHT22;14341;51.256;22.478;2022-08-19T15:34:31;33.40;1.00
26743;DHT22;14341;51.256;22.478;2022-08-19T15:37:37;34.10;1.00
26743;DHT22;14341;51.256;22.478;2022-08-19T15:43:47;34.60;1.00
26743;DHT22;14341;51.256;22.478;2022-08-19T15:46:52;33.70;1.00
26743;DHT22;14341;51.256;22.478;2022-08-19T15:49:57;33.70;1.00
26743;DHT22;14341;51.256;22.478;2022-08-19T15:53:05;33.70;1.00
26743;DHT22;14341;51.256;22.478;2022-08-19T15:56:10;33.20;1.00
26743;DHT22;14341;51.256;22.478;2022-08-19T15:59:13;33.40;1.00
26743;DHT22;14341;51.256;22.478;2022-08-19T16:02:42;33.70;1.00
26743;DHT22;14341;51.256;22.478;2022-08-19T16:06:04;33.00;1.00
26743;DHT22;14341;51.256;22.478;2022-08-19T16:09:28;32.60;1.00
26743;DHT22;14341;51.256;22.478;2022-08-19T16:15:40;32.60;1.00
26743;DHT22;14341;51.256;22.478;2022-08-19T16:18:45;33.20;1.00
26743;DHT22;14341;51.256;22.478;2022-08-19T16:21:53;31.70;1.00
26743;DHT22;14341;51.256;22.478;2022-08-19T16:24:57;31.60;1.00
26743;DHT22;14341;51.256;22.478;2022-08-19T16:28:01;30.90;1.00
26743;DHT22;14341;51.256;22.478;2022-08-19T16:31:09;30.00;1.00
26743;DHT22;14341;51.256;22.478;2022-08-19T16:34:13;30.00;1.00
26743;DHT22;14341;51.256;22.478;2022-08-19T16:37:18;29.50;1.00
26743;DHT22;14341;51.256;22.478;2022-08-19T16:40:23;29.00;1.00
26743;DHT22;14341;51.256;22.478;2022-08-19T16:43:28;29.00;1.00
26743;DHT22;14341;51.256;22.478;2022-08-19T16:46:32;28.30;1.00
26743;DHT22;14341;51.256;22.478;2022-08-19T16:49:35;27.70;1.00
26743;DHT22;14341;51.256;22.478;2022-08-19T16:52:57;27.40;1.00
26743;DHT22;14341;51.256;22.478;2022-08-19T16:56:01;27.10;1.00
26743;DHT22;14341;51.256;22.478;2022-08-19T16:59:05;27.10;1.00
26743;DHT22;14341;51.256;22.478;2022-08-19T17:02:10;27.10;1.00
26743;DHT22;14341;51.256;22.478;2022-08-19T17:05:14;27.20;1.00
26743;DHT22;14341;51.256;22.478;2022-08-19T17:11:24;26.70;1.00
26743;DHT22;14341;51.256;22.478;2022-08-19T17:14:28;26.60;1.00
26743;DHT22;14341;51.256;22.478;2022-08-19T17:17:31;26.60;1.00
26743;DHT22;14341;51.256;22.478;2022-08-19T17:20:35;26.30;1.00
26743;DHT22;14341;51.256;22.478;2022-08-19T17:23:40;26.10;1.00
26743;DHT22;14341;51.256;22.478;2022-08-19T17:26:45;26.00;28.50
26743;DHT22;14341;51.256;22.478;2022-08-19T17:29:48;25.80;34.60
26743;DHT22;14341;51.256;22.478;2022-08-19T17:32:52;25.60;25.70
26743;DHT22;14341;51.256;22.478;2022-08-19T17:35:55;25.30;32.50
26743;DHT22;14341;51.256;22.478;2022-08-19T17:39:01;25.00;49.10
26743;DHT22;14341;51.256;22.478;2022-08-19T17:42:06;25.00;50.20
26743;DHT22;14341;51.256;22.478;2022-08-19T17:45:13;24.80;54.70
26743;DHT22;14341;51.256;22.478;2022-08-19T17:48:16;24.80;54.40
26743;DHT22;14341;51.256;22.478;2022-08-19T17:51:23;24.70;51.30
26743;DHT22;14341;51.256;22.478;2022-08-19T17:54:29;24.60;74.40
26743;DHT22;14341;51.256;22.478;2022-08-19T17:57:35;24.50;80.90
26743;DHT22;14341;51.256;22.478;2022-08-19T18:00:43;24.40;83.50
26743;DHT22;14341;51.256;22.478;2022-08-19T18:03:54;24.30;91.60
26743;DHT22;14341;51.256;22.478;2022-08-19T18:06:58;24.20;94.30
26743;DHT22;14341;51.256;22.478;2022-08-19T18:10:07;24.10;89.90
26743;DHT22;14341;51.256;22.478;2022-08-19T18:13:11;24.00;92.90
26743;DHT22;14341;51.256;22.478;2022-08-19T18:16:18;24.00;90.00
26743;DHT22;14341;51.256;22.478;2022-08-19T18:19:24;23.80;91.00
26743;DHT22;14341;51.256;22.478;2022-08-19T18:22:33;23.70;91.10
26743;DHT22;14341;51.256;22.478;2022-08-19T18:25:39;23.40;97.40
26743;DHT22;14341;51.256;22.478;2022-08-19T18:28:44;23.30;97.30
26743;DHT22;14341;51.256;22.478;2022-08-19T18:31:51;23.10;99.90
26743;DHT22;14341;51.256;22.478;2022-08-19T18:34:59;23.00;99.90
26743;DHT22;14341;51.256;22.478;2022-08-19T18:38:03;23.90;99.90
26743;DHT22;14341;51.256;22.478;2022-08-19T18:44:50;22.70;99.90
26743;DHT22;14341;51.256;22.478;2022-08-19T18:48:11;22.50;99.90
26743;DHT22;14341;51.256;22.478;2022-08-19T18:51:32;22.50;99.90
26743;DHT22;14341;51.256;22.478;2022-08-19T18:54:36;22.40;99.90
26743;DHT22;14341;51.256;22.478;2022-08-19T18:57:41;22.40;99.90
26743;DHT22;14341;51.256;22.478;2022-08-19T19:00:45;22.30;99.90
26743;DHT22;14341;51.256;22.478;2022-08-19T19:03:51;22.30;99.90
26743;DHT22;14341;51.256;22.478;2022-08-19T19:06:55;22.20;99.90
26743;DHT22;14341;51.256;22.478;2022-08-19T19:09:59;22.20;99.90
26743;DHT22;14341;51.256;22.478;2022-08-19T19:13:04;22.00;99.90
26743;DHT22;14341;51.256;22.478;2022-08-19T19:16:08;22.10;99.90
26743;DHT22;14341;51.256;22.478;2022-08-19T19:19:13;22.10;99.90
26743;DHT22;14341;51.256;22.478;2022-08-19T19:22:22;22.00;99.90
26743;DHT22;14341;51.256;22.478;2022-08-19T19:25:25;22.00;99.90
26743;DHT22;14341;51.256;22.478;2022-08-19T19:28:51;22.00;99.90
26743;DHT22;14341;51.256;22.478;2022-08-19T19:31:55;22.00;99.90
26743;DHT22;14341;51.256;22.478;2022-08-19T19:34:59;22.00;99.90
26743;DHT22;14341;51.256;22.478;2022-08-19T19:38:03;21.90;99.90
26743;DHT22;14341;51.256;22.478;2022-08-19T19:41:06;22.00;99.90
26743;DHT22;14341;51.256;22.478;2022-08-19T19:47:32;21.80;99.90
26743;DHT22;14341;51.256;22.478;2022-08-19T19:50:35;21.10;99.90
26743;DHT22;14341;51.256;22.478;2022-08-19T19:53:39;21.80;99.90
26743;DHT22;14341;51.256;22.478;2022-08-19T19:56:44;21.80;99.90
26743;DHT22;14341;51.256;22.478;2022-08-19T19:59:52;21.80;99.90
26743;DHT22;14341;51.256;22.478;2022-08-19T20:02:57;21.70;99.90
26743;DHT22;14341;51.256;22.478;2022-08-19T20:06:00;23.00;99.90
26743;DHT22;14341;51.256;22.478;2022-08-19T20:09:04;21.60;99.90
26743;DHT22;14341;51.256;22.478;2022-08-19T20:12:11;21.50;99.90
26743;DHT22;14341;51.256;22.478;2022-08-19T20:15:21;21.40;99.90
26743;DHT22;14341;51.256;22.478;2022-08-19T20:18:25;21.40;99.90
26743;DHT22;14341;51.256;22.478;2022-08-19T20:21:29;21.40;99.90
26743;DHT22;14341;51.256;22.478;2022-08-19T20:24:36;21.40;99.90
26743;DHT22;14341;51.256;22.478;2022-08-19T20:27:40;21.30;99.90
26743;DHT22;14341;51.256;22.478;2022-08-19T20:30:47;21.30;99.90
26743;DHT22;14341;51.256;22.478;2022-08-19T20:33:51;21.70;99.90
26743;DHT22;14341;51.256;22.478;2022-08-19T20:36:54;21.40;99.90
26743;DHT22;14341;51.256;22.478;2022-08-19T20:43:06;23.50;99.90
26743;DHT22;14341;51.256;22.478;2022-08-19T20:49:17;21.20;99.90
26743;DHT22;14341;51.256;22.478;2022-08-19T20:52:23;21.20;99.90
26743;DHT22;14341;51.256;22.478;2022-08-19T20:55:27;21.20;99.90
26743;DHT22;14341;51.256;22.478;2022-08-19T20:58:32;21.20;99.90
26743;DHT22;14341;51.256;22.478;2022-08-19T21:04:41;21.10;99.90
26743;DHT22;14341;51.256;22.478;2022-08-19T21:07:45;21.10;99.90
26743;DHT22;14341;51.256;22.478;2022-08-19T21:10:49;21.20;99.90
26743;DHT22;14341;51.256;22.478;2022-08-19T21:13:59;21.10;99.90
26743;DHT22;14341;51.256;22.478;2022-08-19T21:20:09;21.20;99.90
26743;DHT22;14341;51.256;22.478;2022-08-19T21:23:16;21.10;99.90
26743;DHT22;14341;51.256;22.478;2022-08-19T21:26:20;21.10;99.90
26743;DHT22;14341;51.256;22.478;2022-08-19T21:29:25;21.10;99.90
26743;DHT22;14341;51.256;22.478;2022-08-19T21:32:30;21.10;99.90
26743;DHT22;14341;51.256;22.478;2022-08-19T21:35:33;21.10;99.90
26743;DHT22;14341;51.256;22.478;2022-08-19T21:38:37;21.00;99.90
26743;DHT22;14341;51.256;22.478;2022-08-19T21:41:40;20.90;99.90
26743;DHT22;14341;51.256;22.478;2022-08-19T21:44:45;20.90;99.90
26743;DHT22;14341;51.256;22.478;2022-08-19T21:47:53;20.80;99.90
26743;DHT22;14341;51.256;22.478;2022-08-19T21:50:59;20.80;99.90
26743;DHT22;14341;51.256;22.478;2022-08-19T21:54:03;20.70;99.90
26743;DHT22;14341;51.256;22.478;2022-08-19T21:57:06;20.70;99.90